sensor_id;sensor_type;location;lat;lon;timestamp;P1;durP1;ratioP1;P2;durP2;ratioP2
52104;SDS011;38103;42.776;23.112;2022-10-31T00:00:17;15.73;;;5.50;;
52104;SDS011;38103;42.776;23.112;2022-10-31T00:02:42;14.90;;;6.00;;
52104;SDS011;38103;42.776;23.112;2022-10-31T00:05:08;14.50;;;5.80;;
52104;SDS011;38103;42.776;23.112;2022-10-31T00:07:33;15.30;;;6.00;;
52104;SDS011;38103;42.776;23.112;2022-10-31T00:09:59;15.07;;;6.13;;
52104;SDS011;38103;42.776;23.112;2022-10-31T00:12:24;17.30;;;5.88;;
52104;SDS011;38103;42.776;23.112;2022-10-31T00:14:51;13.35;;;5.65;;
52104;SDS011;38103;42.776;23.112;2022-10-31T00:17:16;16.35;;;5.65;;
52104;SDS011;38103;42.776;23.112;2022-10-31T00:19:42;14.20;;;5.75;;
52104;SDS011;38103;42.776;23.112;2022-10-31T00:22:07;13.75;;;6.15;;
52104;SDS011;38103;42.776;23.112;2022-10-31T00:24:32;14.27;;;6.05;;
52104;SDS011;38103;42.776;23.112;2022-10-31T00:26:58;13.43;;;5.55;;
52104;SDS011;38103;42.776;23.112;2022-10-31T00:29:23;14.73;;;5.93;;
52104;SDS011;38103;42.776;23.112;2022-10-31T00:31:48;13.55;;;5.88;;
52104;SDS011;38103;42.776;23.112;2022-10-31T00:34:14;15.57;;;6.70;;
52104;SDS011;38103;42.776;23.112;2022-10-31T00:36:39;14.25;;;5.82;;
52104;SDS011;38103;42.776;23.112;2022-10-31T00:39:04;15.00;;;6.80;;
52104;SDS011;38103;42.776;23.112;2022-10-31T00:41:30;15.77;;;6.00;;
52104;SDS011;38103;42.776;23.112;2022-10-31T00:43:55;15.70;;;6.55;;
52104;SDS011;38103;42.776;23.112;2022-10-31T00:46:21;14.00;;;6.00;;
52104;SDS011;38103;42.776;23.112;2022-10-31T00:48:46;14.35;;;6.18;;
52104;SDS011;38103;42.776;23.112;2022-10-31T00:51:11;15.65;;;6.00;;
52104;SDS011;38103;42.776;23.112;2022-10-31T00:53:37;14.40;;;6.40;;
52104;SDS011;38103;42.776;23.112;2022-10-31T00:56:02;14.20;;;6.30;;
52104;SDS011;38103;42.776;23.112;2022-10-31T00:58:28;14.52;;;5.93;;
52104;SDS011;38103;42.776;23.112;2022-10-31T01:00:53;15.10;;;6.72;;
52104;SDS011;38103;42.776;23.112;2022-10-31T01:03:22;13.43;;;6.07;;
52104;SDS011;38103;42.776;23.112;2022-10-31T01:06:22;15.52;;;5.95;;
52104;SDS011;38103;42.776;23.112;2022-10-31T01:08:41;16.25;;;6.55;;
52104;SDS011;38103;42.776;23.112;2022-10-31T01:11:08;14.82;;;7.05;;
52104;SDS011;38103;42.776;23.112;2022-10-31T01:13:36;14.80;;;6.10;;
52104;SDS011;38103;42.776;23.112;2022-10-31T01:16:03;15.48;;;6.30;;
52104;SDS011;38103;42.776;23.112;2022-10-31T01:18:30;13.68;;;5.97;;
52104;SDS011;38103;42.776;23.112;2022-10-31T01:23:25;15.40;;;6.80;;
52104;SDS011;38103;42.776;23.112;2022-10-31T01:25:58;15.10;;;6.90;;
52104;SDS011;38103;42.776;23.112;2022-10-31T01:28:29;15.90;;;6.75;;
52104;SDS011;38103;42.776;23.112;2022-10-31T01:30:54;14.32;;;6.40;;
52104;SDS011;38103;42.776;23.112;2022-10-31T01:33:20;15.45;;;6.80;;
52104;SDS011;38103;42.776;23.112;2022-10-31T01:35:45;16.25;;;7.07;;
52104;SDS011;38103;42.776;23.112;2022-10-31T01:38:11;17.10;;;6.88;;
52104;SDS011;38103;42.776;23.112;2022-10-31T01:40:36;16.35;;;7.18;;
52104;SDS011;38103;42.776;23.112;2022-10-31T01:43:01;15.45;;;7.10;;
52104;SDS011;38103;42.776;23.112;2022-10-31T01:45:27;24.10;;;7.03;;
52104;SDS011;38103;42.776;23.112;2022-10-31T01:47:52;16.60;;;6.78;;
52104;SDS011;38103;42.776;23.112;2022-10-31T01:50:31;18.67;;;7.80;;
52104;SDS011;38103;42.776;23.112;2022-10-31T01:55:30;17.63;;;7.63;;
52104;SDS011;38103;42.776;23.112;2022-10-31T01:58:08;18.02;;;6.68;;
52104;SDS011;38103;42.776;23.112;2022-10-31T02:00:37;15.88;;;7.53;;
52104;SDS011;38103;42.776;23.112;2022-10-31T02:03:03;14.30;;;6.93;;
52104;SDS011;38103;42.776;23.112;2022-10-31T02:05:29;16.20;;;6.90;;
52104;SDS011;38103;42.776;23.112;2022-10-31T02:07:57;14.38;;;6.40;;
52104;SDS011;38103;42.776;23.112;2022-10-31T02:10:26;16.80;;;7.47;;
52104;SDS011;38103;42.776;23.112;2022-10-31T02:12:53;17.17;;;7.32;;
52104;SDS011;38103;42.776;23.112;2022-10-31T02:15:20;15.93;;;7.55;;
52104;SDS011;38103;42.776;23.112;2022-10-31T02:17:45;17.88;;;7.03;;
52104;SDS011;38103;42.776;23.112;2022-10-31T02:28:10;21.48;;;6.78;;
52104;SDS011;38103;42.776;23.112;2022-10-31T02:36:16;15.43;;;7.20;;
52104;SDS011;38103;42.776;23.112;2022-10-31T02:44:25;13.88;;;6.32;;
52104;SDS011;38103;42.776;23.112;2022-10-31T02:47:06;16.30;;;7.15;;
52104;SDS011;38103;42.776;23.112;2022-10-31T02:52:29;19.33;;;7.00;;
52104;SDS011;38103;42.776;23.112;2022-10-31T02:54:56;15.50;;;6.82;;
52104;SDS011;38103;42.776;23.112;2022-10-31T02:57:31;15.15;;;6.82;;
52104;SDS011;38103;42.776;23.112;2022-10-31T03:00:04;14.30;;;6.80;;
52104;SDS011;38103;42.776;23.112;2022-10-31T03:08:06;16.15;;;6.82;;
52104;SDS011;38103;42.776;23.112;2022-10-31T03:10:43;16.98;;;7.97;;
52104;SDS011;38103;42.776;23.112;2022-10-31T03:16:42;16.23;;;8.18;;
52104;SDS011;38103;42.776;23.112;2022-10-31T03:19:16;16.52;;;8.27;;
52104;SDS011;38103;42.776;23.112;2022-10-31T03:21:47;16.10;;;8.18;;
52104;SDS011;38103;42.776;23.112;2022-10-31T03:24:17;19.33;;;8.70;;
52104;SDS011;38103;42.776;23.112;2022-10-31T03:26:47;18.42;;;8.68;;
52104;SDS011;38103;42.776;23.112;2022-10-31T03:29:18;17.27;;;8.80;;
52104;SDS011;38103;42.776;23.112;2022-10-31T03:31:55;16.67;;;8.48;;
52104;SDS011;38103;42.776;23.112;2022-10-31T03:34:24;17.80;;;8.77;;
52104;SDS011;38103;42.776;23.112;2022-10-31T03:36:50;20.63;;;9.70;;
52104;SDS011;38103;42.776;23.112;2022-10-31T03:39:19;20.10;;;9.70;;
52104;SDS011;38103;42.776;23.112;2022-10-31T03:41:49;19.75;;;9.80;;
52104;SDS011;38103;42.776;23.112;2022-10-31T03:44:21;23.17;;;10.93;;
52104;SDS011;38103;42.776;23.112;2022-10-31T03:46:48;21.85;;;10.13;;
52104;SDS011;38103;42.776;23.112;2022-10-31T03:49:14;19.23;;;9.45;;
52104;SDS011;38103;42.776;23.112;2022-10-31T03:51:54;19.45;;;10.18;;
52104;SDS011;38103;42.776;23.112;2022-10-31T03:59:58;20.17;;;10.55;;
52104;SDS011;38103;42.776;23.112;2022-10-31T04:02:29;29.27;;;10.52;;
52104;SDS011;38103;42.776;23.112;2022-10-31T04:04:57;20.08;;;11.07;;
52104;SDS011;38103;42.776;23.112;2022-10-31T04:07:24;23.40;;;11.43;;
52104;SDS011;38103;42.776;23.112;2022-10-31T04:09:55;23.92;;;12.50;;
52104;SDS011;38103;42.776;23.112;2022-10-31T04:12:22;25.45;;;11.20;;
52104;SDS011;38103;42.776;23.112;2022-10-31T04:14:50;25.58;;;11.60;;
52104;SDS011;38103;42.776;23.112;2022-10-31T04:17:18;20.38;;;11.32;;
52104;SDS011;38103;42.776;23.112;2022-10-31T04:19:46;24.35;;;12.70;;
52104;SDS011;38103;42.776;23.112;2022-10-31T04:22:12;26.48;;;12.10;;
52104;SDS011;38103;42.776;23.112;2022-10-31T04:24:38;23.40;;;11.73;;
52104;SDS011;38103;42.776;23.112;2022-10-31T04:27:05;22.10;;;11.63;;
52104;SDS011;38103;42.776;23.112;2022-10-31T04:29:30;27.92;;;12.30;;
52104;SDS011;38103;42.776;23.112;2022-10-31T04:31:56;24.63;;;12.90;;
52104;SDS011;38103;42.776;23.112;2022-10-31T04:34:21;24.20;;;12.85;;
52104;SDS011;38103;42.776;23.112;2022-10-31T04:36:46;23.77;;;13.05;;
52104;SDS011;38103;42.776;23.112;2022-10-31T04:39:12;23.05;;;13.02;;
52104;SDS011;38103;42.776;23.112;2022-10-31T04:41:37;24.58;;;13.55;;
52104;SDS011;38103;42.776;23.112;2022-10-31T04:44:02;23.67;;;13.38;;
52104;SDS011;38103;42.776;23.112;2022-10-31T04:46:28;26.75;;;14.07;;
52104;SDS011;38103;42.776;23.112;2022-10-31T04:48:53;25.42;;;13.43;;
52104;SDS011;38103;42.776;23.112;2022-10-31T04:51:19;27.08;;;13.27;;
52104;SDS011;38103;42.776;23.112;2022-10-31T04:53:44;22.95;;;13.35;;
52104;SDS011;38103;42.776;23.112;2022-10-31T04:56:09;23.17;;;12.95;;
52104;SDS011;38103;42.776;23.112;2022-10-31T04:58:35;23.60;;;13.98;;
52104;SDS011;38103;42.776;23.112;2022-10-31T05:01:00;25.75;;;13.70;;
52104;SDS011;38103;42.776;23.112;2022-10-31T05:03:25;24.63;;;13.75;;
52104;SDS011;38103;42.776;23.112;2022-10-31T05:05:51;26.77;;;13.05;;
52104;SDS011;38103;42.776;23.112;2022-10-31T05:08:16;25.15;;;14.52;;
52104;SDS011;38103;42.776;23.112;2022-10-31T05:10:42;26.63;;;13.85;;
52104;SDS011;38103;42.776;23.112;2022-10-31T05:13:07;24.33;;;14.13;;
52104;SDS011;38103;42.776;23.112;2022-10-31T05:15:33;27.35;;;14.82;;
52104;SDS011;38103;42.776;23.112;2022-10-31T05:17:58;26.20;;;14.10;;
52104;SDS011;38103;42.776;23.112;2022-10-31T05:20:25;26.55;;;14.10;;
52104;SDS011;38103;42.776;23.112;2022-10-31T05:22:52;29.30;;;14.15;;
52104;SDS011;38103;42.776;23.112;2022-10-31T05:25:20;26.55;;;13.32;;
52104;SDS011;38103;42.776;23.112;2022-10-31T05:27:48;26.77;;;14.00;;
52104;SDS011;38103;42.776;23.112;2022-10-31T05:30:17;25.83;;;13.85;;
52104;SDS011;38103;42.776;23.112;2022-10-31T05:32:47;24.17;;;13.93;;
52104;SDS011;38103;42.776;23.112;2022-10-31T05:35:15;25.00;;;13.35;;
52104;SDS011;38103;42.776;23.112;2022-10-31T05:37:44;25.42;;;13.63;;
52104;SDS011;38103;42.776;23.112;2022-10-31T05:40:10;26.90;;;13.95;;
52104;SDS011;38103;42.776;23.112;2022-10-31T05:42:40;26.77;;;14.35;;
52104;SDS011;38103;42.776;23.112;2022-10-31T05:45:10;26.17;;;14.10;;
52104;SDS011;38103;42.776;23.112;2022-10-31T05:47:37;26.77;;;13.80;;
52104;SDS011;38103;42.776;23.112;2022-10-31T05:50:03;27.98;;;13.50;;
52104;SDS011;38103;42.776;23.112;2022-10-31T05:52:30;25.05;;;12.90;;
52104;SDS011;38103;42.776;23.112;2022-10-31T05:54:56;23.92;;;13.10;;
52104;SDS011;38103;42.776;23.112;2022-10-31T05:57:22;22.85;;;12.23;;
52104;SDS011;38103;42.776;23.112;2022-10-31T05:59:47;24.85;;;13.52;;
52104;SDS011;38103;42.776;23.112;2022-10-31T06:02:12;22.95;;;12.88;;
52104;SDS011;38103;42.776;23.112;2022-10-31T06:04:38;25.40;;;13.50;;
52104;SDS011;38103;42.776;23.112;2022-10-31T06:07:03;28.45;;;13.60;;
52104;SDS011;38103;42.776;23.112;2022-10-31T06:09:28;21.55;;;13.38;;
52104;SDS011;38103;42.776;23.112;2022-10-31T06:11:54;26.27;;;13.02;;
52104;SDS011;38103;42.776;23.112;2022-10-31T06:14:19;22.45;;;12.82;;
52104;SDS011;38103;42.776;23.112;2022-10-31T06:16:44;22.50;;;12.13;;
52104;SDS011;38103;42.776;23.112;2022-10-31T06:19:10;21.02;;;12.50;;
52104;SDS011;38103;42.776;23.112;2022-10-31T06:21:35;23.00;;;12.07;;
52104;SDS011;38103;42.776;23.112;2022-10-31T06:24:00;23.92;;;11.80;;
52104;SDS011;38103;42.776;23.112;2022-10-31T06:26:26;23.38;;;12.98;;
52104;SDS011;38103;42.776;23.112;2022-10-31T06:28:51;25.48;;;13.05;;
52104;SDS011;38103;42.776;23.112;2022-10-31T06:31:17;20.98;;;12.15;;
52104;SDS011;38103;42.776;23.112;2022-10-31T06:33:42;21.13;;;11.30;;
52104;SDS011;38103;42.776;23.112;2022-10-31T06:36:08;20.23;;;11.40;;
52104;SDS011;38103;42.776;23.112;2022-10-31T06:38:34;18.58;;;11.07;;
52104;SDS011;38103;42.776;23.112;2022-10-31T06:41:03;21.60;;;11.95;;
52104;SDS011;38103;42.776;23.112;2022-10-31T06:43:29;20.02;;;11.27;;
52104;SDS011;38103;42.776;23.112;2022-10-31T06:45:55;22.33;;;11.45;;
52104;SDS011;38103;42.776;23.112;2022-10-31T06:48:20;19.98;;;11.65;;
52104;SDS011;38103;42.776;23.112;2022-10-31T06:50:46;19.00;;;11.35;;
52104;SDS011;38103;42.776;23.112;2022-10-31T06:53:11;21.55;;;11.85;;
52104;SDS011;38103;42.776;23.112;2022-10-31T06:55:39;19.67;;;11.10;;
52104;SDS011;38103;42.776;23.112;2022-10-31T06:58:05;20.10;;;10.95;;
52104;SDS011;38103;42.776;23.112;2022-10-31T07:00:30;21.70;;;11.35;;
52104;SDS011;38103;42.776;23.112;2022-10-31T07:02:57;19.95;;;10.65;;
52104;SDS011;38103;42.776;23.112;2022-10-31T07:18:00;18.63;;;10.77;;
52104;SDS011;38103;42.776;23.112;2022-10-31T07:20:27;19.80;;;10.57;;
52104;SDS011;38103;42.776;23.112;2022-10-31T07:22:52;20.75;;;10.48;;
52104;SDS011;38103;42.776;23.112;2022-10-31T07:25:18;19.42;;;10.60;;
52104;SDS011;38103;42.776;23.112;2022-10-31T07:27:43;18.05;;;10.55;;
52104;SDS011;38103;42.776;23.112;2022-10-31T07:30:12;20.17;;;10.68;;
52104;SDS011;38103;42.776;23.112;2022-10-31T07:32:42;17.70;;;9.40;;
52104;SDS011;38103;42.776;23.112;2022-10-31T07:35:09;18.95;;;9.63;;
52104;SDS011;38103;42.776;23.112;2022-10-31T07:37:42;17.98;;;9.10;;
52104;SDS011;38103;42.776;23.112;2022-10-31T07:40:07;16.20;;;9.27;;
52104;SDS011;38103;42.776;23.112;2022-10-31T07:42:34;21.98;;;9.38;;
52104;SDS011;38103;42.776;23.112;2022-10-31T07:45:01;15.35;;;8.80;;
52104;SDS011;38103;42.776;23.112;2022-10-31T07:47:26;17.45;;;9.43;;
52104;SDS011;38103;42.776;23.112;2022-10-31T07:49:51;19.55;;;9.63;;
52104;SDS011;38103;42.776;23.112;2022-10-31T07:52:17;16.13;;;8.90;;
52104;SDS011;38103;42.776;23.112;2022-10-31T07:54:42;16.95;;;9.73;;
52104;SDS011;38103;42.776;23.112;2022-10-31T07:57:07;20.10;;;9.07;;
52104;SDS011;38103;42.776;23.112;2022-10-31T07:59:33;15.15;;;8.80;;
52104;SDS011;38103;42.776;23.112;2022-10-31T08:01:58;21.00;;;9.02;;
52104;SDS011;38103;42.776;23.112;2022-10-31T08:04:23;19.73;;;9.15;;
52104;SDS011;38103;42.776;23.112;2022-10-31T08:06:49;15.50;;;8.82;;
52104;SDS011;38103;42.776;23.112;2022-10-31T08:09:14;17.15;;;8.48;;
52104;SDS011;38103;42.776;23.112;2022-10-31T08:11:39;16.90;;;8.75;;
52104;SDS011;38103;42.776;23.112;2022-10-31T08:14:05;20.02;;;9.05;;
52104;SDS011;38103;42.776;23.112;2022-10-31T08:16:30;15.63;;;8.77;;
52104;SDS011;38103;42.776;23.112;2022-10-31T08:18:56;18.10;;;8.13;;
52104;SDS011;38103;42.776;23.112;2022-10-31T08:21:21;17.92;;;9.90;;
52104;SDS011;38103;42.776;23.112;2022-10-31T08:23:47;15.82;;;8.45;;
52104;SDS011;38103;42.776;23.112;2022-10-31T08:26:13;15.50;;;7.80;;
52104;SDS011;38103;42.776;23.112;2022-10-31T08:28:38;17.23;;;8.27;;
52104;SDS011;38103;42.776;23.112;2022-10-31T08:31:03;18.63;;;9.00;;
52104;SDS011;38103;42.776;23.112;2022-10-31T08:33:29;16.33;;;8.27;;
52104;SDS011;38103;42.776;23.112;2022-10-31T08:35:57;18.45;;;8.18;;
52104;SDS011;38103;42.776;23.112;2022-10-31T08:38:23;14.50;;;7.53;;
52104;SDS011;38103;42.776;23.112;2022-10-31T08:40:48;15.90;;;8.13;;
52104;SDS011;38103;42.776;23.112;2022-10-31T08:43:15;18.58;;;8.40;;
52104;SDS011;38103;42.776;23.112;2022-10-31T08:45:41;16.00;;;7.80;;
52104;SDS011;38103;42.776;23.112;2022-10-31T08:48:12;16.05;;;7.65;;
52104;SDS011;38103;42.776;23.112;2022-10-31T08:50:39;15.45;;;7.60;;
52104;SDS011;38103;42.776;23.112;2022-10-31T08:55:38;15.05;;;7.60;;
52104;SDS011;38103;42.776;23.112;2022-10-31T08:58:05;17.38;;;7.70;;
52104;SDS011;38103;42.776;23.112;2022-10-31T09:00:32;19.52;;;7.30;;
52104;SDS011;38103;42.776;23.112;2022-10-31T09:02:59;16.58;;;7.07;;
52104;SDS011;38103;42.776;23.112;2022-10-31T09:05:25;14.90;;;7.32;;
52104;SDS011;38103;42.776;23.112;2022-10-31T09:07:54;17.15;;;7.47;;
52104;SDS011;38103;42.776;23.112;2022-10-31T09:10:21;15.23;;;7.45;;
52104;SDS011;38103;42.776;23.112;2022-10-31T09:12:46;18.80;;;7.65;;
52104;SDS011;38103;42.776;23.112;2022-10-31T09:15:11;16.00;;;6.85;;
52104;SDS011;38103;42.776;23.112;2022-10-31T09:17:37;14.77;;;7.05;;
52104;SDS011;38103;42.776;23.112;2022-10-31T09:20:02;13.75;;;6.30;;
52104;SDS011;38103;42.776;23.112;2022-10-31T09:22:27;14.65;;;7.13;;
52104;SDS011;38103;42.776;23.112;2022-10-31T09:24:53;15.82;;;7.10;;
52104;SDS011;38103;42.776;23.112;2022-10-31T09:27:18;21.25;;;8.13;;
52104;SDS011;38103;42.776;23.112;2022-10-31T09:29:43;17.40;;;8.32;;
52104;SDS011;38103;42.776;23.112;2022-10-31T09:32:09;14.77;;;6.53;;
52104;SDS011;38103;42.776;23.112;2022-10-31T09:34:34;15.73;;;7.05;;
52104;SDS011;38103;42.776;23.112;2022-10-31T09:36:59;14.50;;;6.68;;
52104;SDS011;38103;42.776;23.112;2022-10-31T09:39:25;15.23;;;6.65;;
52104;SDS011;38103;42.776;23.112;2022-10-31T09:42:10;18.63;;;7.13;;
52104;SDS011;38103;42.776;23.112;2022-10-31T09:45:07;13.55;;;6.65;;
52104;SDS011;38103;42.776;23.112;2022-10-31T09:50:41;14.93;;;6.70;;
52104;SDS011;38103;42.776;23.112;2022-10-31T09:53:34;14.48;;;6.38;;
52104;SDS011;38103;42.776;23.112;2022-10-31T09:56:05;15.23;;;6.40;;
52104;SDS011;38103;42.776;23.112;2022-10-31T09:58:37;18.00;;;6.90;;
52104;SDS011;38103;42.776;23.112;2022-10-31T10:01:42;13.77;;;6.05;;
52104;SDS011;38103;42.776;23.112;2022-10-31T10:04:05;14.80;;;6.25;;
52104;SDS011;38103;42.776;23.112;2022-10-31T10:06:44;19.42;;;6.97;;
52104;SDS011;38103;42.776;23.112;2022-10-31T10:09:12;16.50;;;6.88;;
52104;SDS011;38103;42.776;23.112;2022-10-31T10:22:19;14.75;;;6.38;;
52104;SDS011;38103;42.776;23.112;2022-10-31T10:33:16;15.25;;;6.40;;
52104;SDS011;38103;42.776;23.112;2022-10-31T10:40:56;13.25;;;5.53;;
52104;SDS011;38103;42.776;23.112;2022-10-31T10:43:38;13.88;;;5.65;;
52104;SDS011;38103;42.776;23.112;2022-10-31T10:48:57;15.82;;;6.10;;
52104;SDS011;38103;42.776;23.112;2022-10-31T10:56:57;18.47;;;6.00;;
52104;SDS011;38103;42.776;23.112;2022-10-31T10:59:32;14.73;;;6.43;;
52104;SDS011;38103;42.776;23.112;2022-10-31T11:01:59;20.23;;;6.65;;
52104;SDS011;38103;42.776;23.112;2022-10-31T11:07:23;19.25;;;6.35;;
52104;SDS011;38103;42.776;23.112;2022-10-31T11:09:42;15.35;;;5.47;;
52104;SDS011;38103;42.776;23.112;2022-10-31T11:12:09;15.18;;;5.18;;
52104;SDS011;38103;42.776;23.112;2022-10-31T11:14:44;15.02;;;5.50;;
52104;SDS011;38103;42.776;23.112;2022-10-31T11:17:26;17.73;;;5.30;;
52104;SDS011;38103;42.776;23.112;2022-10-31T11:22:42;13.38;;;4.93;;
52104;SDS011;38103;42.776;23.112;2022-10-31T11:25:22;14.57;;;4.40;;
52104;SDS011;38103;42.776;23.112;2022-10-31T11:30:30;15.25;;;4.65;;
52104;SDS011;38103;42.776;23.112;2022-10-31T11:33:11;14.27;;;4.88;;
52104;SDS011;38103;42.776;23.112;2022-10-31T11:35:43;20.48;;;4.80;;
52104;SDS011;38103;42.776;23.112;2022-10-31T11:38:12;16.00;;;5.50;;
52104;SDS011;38103;42.776;23.112;2022-10-31T11:41:18;12.73;;;4.68;;
52104;SDS011;38103;42.776;23.112;2022-10-31T11:43:38;14.00;;;4.50;;
52104;SDS011;38103;42.776;23.112;2022-10-31T11:46:10;16.75;;;4.45;;
52104;SDS011;38103;42.776;23.112;2022-10-31T11:48:45;11.63;;;4.20;;
52104;SDS011;38103;42.776;23.112;2022-10-31T11:51:13;13.70;;;4.32;;
52104;SDS011;38103;42.776;23.112;2022-10-31T11:53:50;12.30;;;4.43;;
52104;SDS011;38103;42.776;23.112;2022-10-31T11:56:17;14.07;;;4.10;;
52104;SDS011;38103;42.776;23.112;2022-10-31T11:58:43;12.43;;;4.13;;
52104;SDS011;38103;42.776;23.112;2022-10-31T12:01:26;14.23;;;4.65;;
52104;SDS011;38103;42.776;23.112;2022-10-31T12:06:41;15.25;;;4.28;;
52104;SDS011;38103;42.776;23.112;2022-10-31T12:33:07;16.05;;;3.88;;
52104;SDS011;38103;42.776;23.112;2022-10-31T12:41:23;16.33;;;4.20;;
52104;SDS011;38103;42.776;23.112;2022-10-31T12:44:06;14.77;;;4.47;;
52104;SDS011;38103;42.776;23.112;2022-10-31T12:55:40;12.23;;;4.63;;
52104;SDS011;38103;42.776;23.112;2022-10-31T12:58:31;18.27;;;4.80;;
52104;SDS011;38103;42.776;23.112;2022-10-31T13:01:02;13.73;;;4.13;;
52104;SDS011;38103;42.776;23.112;2022-10-31T13:06:58;14.18;;;4.07;;
52104;SDS011;38103;42.776;23.112;2022-10-31T13:09:32;13.23;;;3.95;;
52104;SDS011;38103;42.776;23.112;2022-10-31T13:12:02;10.95;;;4.13;;
52104;SDS011;38103;42.776;23.112;2022-10-31T13:14:38;16.65;;;4.70;;
52104;SDS011;38103;42.776;23.112;2022-10-31T13:17:06;12.25;;;3.97;;
52104;SDS011;38103;42.776;23.112;2022-10-31T13:19:45;11.80;;;4.00;;
52104;SDS011;38103;42.776;23.112;2022-10-31T13:22:13;14.88;;;4.30;;
52104;SDS011;38103;42.776;23.112;2022-10-31T13:25:29;15.07;;;4.50;;
52104;SDS011;38103;42.776;23.112;2022-10-31T13:27:48;12.88;;;4.65;;
52104;SDS011;38103;42.776;23.112;2022-10-31T13:30:16;13.07;;;4.57;;
52104;SDS011;38103;42.776;23.112;2022-10-31T13:43:32;13.05;;;4.45;;
52104;SDS011;38103;42.776;23.112;2022-10-31T13:46:00;16.05;;;4.18;;
52104;SDS011;38103;42.776;23.112;2022-10-31T13:58:40;15.43;;;4.82;;
52104;SDS011;38103;42.776;23.112;2022-10-31T14:01:27;12.23;;;4.22;;
52104;SDS011;38103;42.776;23.112;2022-10-31T14:04:07;13.60;;;4.72;;
52104;SDS011;38103;42.776;23.112;2022-10-31T14:09:37;14.43;;;4.45;;
52104;SDS011;38103;42.776;23.112;2022-10-31T14:12:05;14.95;;;4.35;;
52104;SDS011;38103;42.776;23.112;2022-10-31T14:14:51;10.10;;;3.80;;
52104;SDS011;38103;42.776;23.112;2022-10-31T14:17:22;12.52;;;4.20;;
52104;SDS011;38103;42.776;23.112;2022-10-31T14:20:00;13.55;;;4.25;;
52104;SDS011;38103;42.776;23.112;2022-10-31T14:22:35;20.48;;;4.70;;
52104;SDS011;38103;42.776;23.112;2022-10-31T14:25:24;16.23;;;4.63;;
52104;SDS011;38103;42.776;23.112;2022-10-31T14:28:02;14.90;;;4.25;;
52104;SDS011;38103;42.776;23.112;2022-10-31T14:30:50;13.82;;;4.13;;
52104;SDS011;38103;42.776;23.112;2022-10-31T14:33:18;14.23;;;4.20;;
52104;SDS011;38103;42.776;23.112;2022-10-31T14:47:22;14.05;;;4.63;;
52104;SDS011;38103;42.776;23.112;2022-10-31T14:52:56;13.95;;;4.18;;
52104;SDS011;38103;42.776;23.112;2022-10-31T14:55:24;20.95;;;4.47;;
52104;SDS011;38103;42.776;23.112;2022-10-31T14:57:53;15.50;;;4.68;;
52104;SDS011;38103;42.776;23.112;2022-10-31T15:00:22;12.85;;;4.80;;
52104;SDS011;38103;42.776;23.112;2022-10-31T15:05:55;16.48;;;5.10;;
52104;SDS011;38103;42.776;23.112;2022-10-31T15:08:33;19.55;;;5.18;;
52104;SDS011;38103;42.776;23.112;2022-10-31T15:11:13;17.35;;;5.18;;
52104;SDS011;38103;42.776;23.112;2022-10-31T15:13:43;18.35;;;5.00;;
52104;SDS011;38103;42.776;23.112;2022-10-31T15:16:26;19.38;;;4.82;;
52104;SDS011;38103;42.776;23.112;2022-10-31T15:18:57;20.98;;;5.13;;
52104;SDS011;38103;42.776;23.112;2022-10-31T15:21:26;14.88;;;4.97;;
52104;SDS011;38103;42.776;23.112;2022-10-31T15:23:56;25.42;;;6.07;;
52104;SDS011;38103;42.776;23.112;2022-10-31T15:26:25;21.40;;;5.53;;
52104;SDS011;38103;42.776;23.112;2022-10-31T15:28:57;20.08;;;6.05;;
52104;SDS011;38103;42.776;23.112;2022-10-31T15:31:28;16.30;;;5.57;;
52104;SDS011;38103;42.776;23.112;2022-10-31T15:33:54;23.60;;;6.10;;
52104;SDS011;38103;42.776;23.112;2022-10-31T15:36:25;18.60;;;6.38;;
52104;SDS011;38103;42.776;23.112;2022-10-31T15:38:51;21.92;;;6.55;;
52104;SDS011;38103;42.776;23.112;2022-10-31T15:43:45;18.10;;;6.45;;
52104;SDS011;38103;42.776;23.112;2022-10-31T15:46:12;14.68;;;6.35;;
52104;SDS011;38103;42.776;23.112;2022-10-31T15:48:37;15.10;;;7.03;;
52104;SDS011;38103;42.776;23.112;2022-10-31T15:51:05;15.27;;;6.47;;
52104;SDS011;38103;42.776;23.112;2022-10-31T15:56:09;18.30;;;8.15;;
52104;SDS011;38103;42.776;23.112;2022-10-31T15:58:44;15.93;;;7.63;;
52104;SDS011;38103;42.776;23.112;2022-10-31T16:01:53;20.48;;;7.88;;
52104;SDS011;38103;42.776;23.112;2022-10-31T16:06:35;17.10;;;8.10;;
52104;SDS011;38103;42.776;23.112;2022-10-31T16:09:01;18.40;;;8.32;;
52104;SDS011;38103;42.776;23.112;2022-10-31T16:11:29;19.73;;;8.02;;
52104;SDS011;38103;42.776;23.112;2022-10-31T16:14:32;17.40;;;7.88;;
52104;SDS011;38103;42.776;23.112;2022-10-31T16:16:53;21.38;;;8.07;;
52104;SDS011;38103;42.776;23.112;2022-10-31T16:19:23;26.67;;;8.82;;
52104;SDS011;38103;42.776;23.112;2022-10-31T16:22:11;20.08;;;9.15;;
52104;SDS011;38103;42.776;23.112;2022-10-31T16:24:46;20.88;;;9.13;;
52104;SDS011;38103;42.776;23.112;2022-10-31T16:27:33;21.42;;;8.70;;
52104;SDS011;38103;42.776;23.112;2022-10-31T16:30:01;19.05;;;9.35;;
52104;SDS011;38103;42.776;23.112;2022-10-31T16:32:36;20.23;;;8.98;;
52104;SDS011;38103;42.776;23.112;2022-10-31T16:35:25;21.92;;;9.68;;
52104;SDS011;38103;42.776;23.112;2022-10-31T16:38:02;22.00;;;9.50;;
52104;SDS011;38103;42.776;23.112;2022-10-31T16:40:28;19.17;;;9.63;;
52104;SDS011;38103;42.776;23.112;2022-10-31T16:42:55;18.38;;;8.77;;
52104;SDS011;38103;42.776;23.112;2022-10-31T16:45:23;31.50;;;17.23;;
52104;SDS011;38103;42.776;23.112;2022-10-31T16:47:50;28.95;;;19.65;;
52104;SDS011;38103;42.776;23.112;2022-10-31T16:50:34;24.40;;;13.82;;
52104;SDS011;38103;42.776;23.112;2022-10-31T16:52:59;21.48;;;9.95;;
52104;SDS011;38103;42.776;23.112;2022-10-31T16:55:25;20.80;;;9.35;;
52104;SDS011;38103;42.776;23.112;2022-10-31T16:57:51;21.35;;;9.07;;
52104;SDS011;38103;42.776;23.112;2022-10-31T17:00:20;19.15;;;10.80;;
52104;SDS011;38103;42.776;23.112;2022-10-31T17:02:47;21.10;;;9.52;;
52104;SDS011;38103;42.776;23.112;2022-10-31T17:05:15;21.00;;;9.00;;
52104;SDS011;38103;42.776;23.112;2022-10-31T17:07:42;16.00;;;7.82;;
52104;SDS011;38103;42.776;23.112;2022-10-31T17:10:08;18.48;;;7.65;;
52104;SDS011;38103;42.776;23.112;2022-10-31T17:12:36;16.83;;;7.70;;
52104;SDS011;38103;42.776;23.112;2022-10-31T17:15:04;24.17;;;8.55;;
52104;SDS011;38103;42.776;23.112;2022-10-31T17:17:39;18.65;;;8.25;;
52104;SDS011;38103;42.776;23.112;2022-10-31T17:20:11;16.50;;;7.82;;
52104;SDS011;38103;42.776;23.112;2022-10-31T17:22:43;19.00;;;7.72;;
52104;SDS011;38103;42.776;23.112;2022-10-31T17:25:09;18.02;;;7.97;;
52104;SDS011;38103;42.776;23.112;2022-10-31T17:27:39;20.00;;;7.03;;
52104;SDS011;38103;42.776;23.112;2022-10-31T17:30:05;18.80;;;7.35;;
52104;SDS011;38103;42.776;23.112;2022-10-31T17:32:30;16.25;;;7.70;;
52104;SDS011;38103;42.776;23.112;2022-10-31T17:34:56;19.20;;;8.23;;
52104;SDS011;38103;42.776;23.112;2022-10-31T17:37:21;14.68;;;7.47;;
52104;SDS011;38103;42.776;23.112;2022-10-31T17:39:46;19.27;;;8.15;;
52104;SDS011;38103;42.776;23.112;2022-10-31T17:42:12;18.42;;;7.82;;
52104;SDS011;38103;42.776;23.112;2022-10-31T17:44:37;20.27;;;8.15;;